Time;durP1;ratioP1;P1;durP2;ratioP2;P2;SDS_P1;SDS_P2;PMS_P1;PMS_P2;Temp;Humidity;BMP_temperature;BMP_pressure;BME280_temperature;BME280_humidity;BME280_pressure;Samples;Min_cycle;Max_cycle;Signal;HPM_P1;HPM_P2
2023/07/23 00:00:28;;;;;;;13.02;7.43;;;14.70;99.90;;;;;;6159495;23;20036;-76
2023/07/23 00:02:54;;;;;;;16.35;8.27;;;14.60;99.90;;;;;;6185726;23;20338;-75
2023/07/23 00:05:23;;;;;;;12.70;8.52;;;14.60;99.90;;;;;;6186095;23;20043;-75
2023/07/23 00:07:58;;;;;;;17.13;9.93;;;14.60;99.90;;;;;;6186119;23;20074;-75
2023/07/23 00:10:24;;;;;;;17.15;10.05;;;14.60;99.90;;;;;;6159415;23;20504;-75
2023/07/23 00:12:51;;;;;;;15.93;10.38;;;14.60;99.90;;;;;;6159453;23;20013;-75
2023/07/23 00:15:17;;;;;;;17.65;10.30;;;14.60;99.90;;;;;;6160611;23;20021;-75
2023/07/23 00:17:43;;;;;;;17.33;10.98;;;14.60;99.90;;;;;;6161354;23;20017;-75
2023/07/23 00:20:10;;;;;;;19.35;12.50;;;14.60;99.90;;;;;;6187667;23;20021;-76
2023/07/23 00:22:36;;;;;;;17.88;12.00;;;14.60;99.90;;;;;;6188262;23;20044;-75
2023/07/23 00:25:03;;;;;;;19.88;11.50;;;14.50;99.90;;;;;;6187544;23;20318;-74
2023/07/23 00:27:28;;;;;;;23.15;12.85;;;14.50;99.90;;;;;;6161240;23;20031;-75
2023/07/23 00:29:54;;;;;;;17.77;11.15;;;14.50;99.90;;;;;;6187764;23;20084;-75
2023/07/23 00:32:19;;;;;;;20.08;10.10;;;14.50;99.90;;;;;;6161132;23;20021;-75
2023/07/23 00:34:45;;;;;;;17.17;11.00;;;14.60;99.90;;;;;;6187797;23;20045;-75
2023/07/23 00:37:11;;;;;;;18.63;11.05;;;14.50;99.90;;;;;;6161014;23;20013;-75
2023/07/23 00:39:38;;;;;;;16.48;10.93;;;14.40;99.90;;;;;;6161172;23;20104;-75
2023/07/23 00:42:03;;;;;;;18.23;10.75;;;14.50;99.90;;;;;;6161049;23;20044;-75
2023/07/23 00:44:29;;;;;;;19.60;11.27;;;14.40;99.90;;;;;;6187812;23;20021;-75
2023/07/23 00:46:57;;;;;;;17.90;10.82;;;14.50;99.90;;;;;;6187776;23;20310;-75
2023/07/23 00:49:23;;;;;;;14.32;9.70;;;14.50;99.90;;;;;;6161096;23;20021;-75
2023/07/23 00:51:49;;;;;;;18.60;11.38;;;14.50;99.90;;;;;;6161173;23;20035;-75
2023/07/23 00:54:21;;;;;;;22.65;11.05;;;14.50;99.90;;;;;;6187309;23;20021;-74
2023/07/23 00:56:47;;;;;;;22.03;12.43;;;14.50;99.90;;;;;;6161089;23;20016;-74
2023/07/23 00:59:13;;;;;;;19.92;12.05;;;14.50;99.90;;;;;;6160941;23;20009;-74
2023/07/23 01:01:39;;;;;;;20.20;12.55;;;14.40;99.90;;;;;;6160738;23;20314;-75
2023/07/23 01:04:05;;;;;;;23.98;13.82;;;14.50;99.90;;;;;;6160902;23;20071;-75
2023/07/23 01:06:35;;;;;;;22.00;13.32;;;14.40;99.90;;;;;;6160853;23;20017;-74
2023/07/23 01:09:01;;;;;;;22.58;13.23;;;14.50;99.90;;;;;;6160791;23;20009;-75
2023/07/23 01:11:27;;;;;;;23.08;12.77;;;14.50;99.90;;;;;;6160803;23;20016;-74
2023/07/23 01:13:55;;;;;;;20.65;12.80;;;14.50;99.90;;;;;;6187338;23;20009;-75
2023/07/23 01:16:23;;;;;;;19.83;12.18;;;14.60;99.90;;;;;;6161343;23;20020;-74
2023/07/23 01:18:49;;;;;;;17.30;11.07;;;14.50;99.90;;;;;;6160703;23;20340;-75
2023/07/23 01:21:17;;;;;;;15.85;9.88;;;14.50;99.90;;;;;;6160648;23;20409;-74
2023/07/23 01:23:43;;;;;;;19.88;10.75;;;14.50;99.90;;;;;;6160758;23;20021;-75
2023/07/23 01:26:08;;;;;;;21.25;10.77;;;14.50;99.90;;;;;;6160298;23;20036;-75
2023/07/23 01:28:34;;;;;;;19.65;9.90;;;14.40;99.90;;;;;;6160714;23;20029;-74
2023/07/23 01:31:00;;;;;;;17.13;10.05;;;14.50;99.90;;;;;;6187151;23;20317;-74
2023/07/23 01:33:26;;;;;;;18.25;9.80;;;14.50;99.90;;;;;;6160490;23;20044;-75
2023/07/23 01:35:55;;;;;;;17.08;10.13;;;14.50;99.90;;;;;;6160606;23;20021;-74
2023/07/23 01:38:22;;;;;;;18.17;9.57;;;14.40;99.90;;;;;;6157428;23;20028;-75
2023/07/23 01:40:52;;;;;;;14.48;9.10;;;14.50;99.90;;;;;;6131037;23;20112;-75
2023/07/23 01:43:18;;;;;;;14.95;8.55;;;14.40;99.90;;;;;;6131327;23;20095;-75
2023/07/23 01:45:44;;;;;;;13.95;8.82;;;14.50;99.90;;;;;;6130853;23;20430;-75
2023/07/23 01:48:15;;;;;;;16.48;8.45;;;14.40;99.90;;;;;;6130912;23;20464;-75
2023/07/23 01:50:40;;;;;;;15.90;8.15;;;14.40;99.90;;;;;;6130864;23;20456;-75
2023/07/23 01:53:07;;;;;;;16.17;8.05;;;14.40;99.90;;;;;;6130842;23;20017;-75
2023/07/23 01:55:33;;;;;;;13.02;7.88;;;14.50;99.90;;;;;;6130757;23;20104;-74
2023/07/23 01:57:59;;;;;;;14.10;8.35;;;14.50;99.90;;;;;;6130693;23;20099;-75
2023/07/23 02:00:24;;;;;;;14.07;8.10;;;14.60;99.90;;;;;;6130530;23;20377;-76
2023/07/23 02:02:50;;;;;;;18.65;7.82;;;14.50;99.90;;;;;;6157209;23;20093;-74
2023/07/23 02:05:19;;;;;;;15.80;8.32;;;14.60;99.90;;;;;;6156810;23;20010;-74
2023/07/23 02:07:45;;;;;;;12.50;7.53;;;14.60;99.90;;;;;;6130690;23;20022;-75
2023/07/23 02:10:11;;;;;;;15.38;7.45;;;14.60;99.90;;;;;;6130706;23;20014;-75
2023/07/23 02:12:37;;;;;;;15.52;7.30;;;14.60;99.90;;;;;;6130645;23;20017;-75
2023/07/23 02:15:03;;;;;;;14.38;7.35;;;14.60;99.90;;;;;;6130591;23;20027;-75
2023/07/23 02:17:29;;;;;;;14.27;7.25;;;14.60;99.90;;;;;;6130565;23;20067;-75
2023/07/23 02:19:55;;;;;;;12.30;6.93;;;14.60;99.90;;;;;;6130534;23;20072;-74
2023/07/23 02:22:20;;;;;;;17.92;8.70;;;14.60;99.90;;;;;;6130516;23;20092;-75
2023/07/23 02:24:46;;;;;;;15.30;7.88;;;14.70;99.90;;;;;;6156814;23;20378;-75
2023/07/23 02:27:13;;;;;;;16.33;8.30;;;14.60;99.90;;;;;;6130607;23;20373;-75
2023/07/23 02:29:38;;;;;;;17.60;9.82;;;14.60;99.90;;;;;;6130446;23;20025;-75
2023/07/23 02:32:06;;;;;;;19.85;9.80;;;14.60;99.90;;;;;;6130511;23;20009;-75
2023/07/23 02:34:32;;;;;;;19.67;10.40;;;14.60;99.90;;;;;;6130164;23;20029;-75
2023/07/23 02:36:58;;;;;;;17.58;9.75;;;14.70;99.90;;;;;;6169273;23;20017;-75
2023/07/23 02:39:24;;;;;;;17.40;9.68;;;14.70;99.90;;;;;;6159615;23;20099;-75
2023/07/23 02:41:49;;;;;;;15.18;9.10;;;14.70;99.90;;;;;;6159968;23;20079;-75
2023/07/23 02:44:15;;;;;;;19.35;10.10;;;14.70;99.90;;;;;;6159971;23;20017;-75
2023/07/23 02:46:41;;;;;;;17.45;9.57;;;14.70;99.90;;;;;;6186551;23;20013;-74
2023/07/23 02:49:06;;;;;;;15.38;9.10;;;14.70;99.90;;;;;;6159715;23;20016;-75
2023/07/23 02:51:32;;;;;;;18.30;9.52;;;14.70;99.90;;;;;;6159788;23;20051;-75
2023/07/23 02:53:57;;;;;;;18.13;9.48;;;14.70;99.90;;;;;;6186092;23;20017;-75
2023/07/23 02:56:23;;;;;;;17.00;10.18;;;14.70;99.90;;;;;;6159858;23;20021;-76
2023/07/23 02:58:49;;;;;;;18.60;9.30;;;14.60;99.90;;;;;;6159883;23;20017;-75
2023/07/23 03:01:15;;;;;;;17.70;9.32;;;14.50;99.90;;;;;;6159735;23;20055;-75
2023/07/23 03:03:40;;;;;;;18.42;9.93;;;14.50;99.90;;;;;;6159690;23;20040;-76
2023/07/23 03:06:08;;;;;;;19.67;9.15;;;14.50;99.90;;;;;;6159711;23;20433;-75
2023/07/23 03:08:33;;;;;;;20.17;8.80;;;14.50;99.90;;;;;;6159670;23;20044;-74
2023/07/23 03:10:59;;;;;;;20.42;8.77;;;14.60;99.90;;;;;;6159850;23;20457;-75
2023/07/23 03:13:24;;;;;;;18.10;9.20;;;14.60;99.90;;;;;;6159742;23;20048;-75
2023/07/23 03:15:50;;;;;;;18.10;9.05;;;14.50;99.90;;;;;;6159651;23;20021;-75
2023/07/23 03:18:16;;;;;;;16.52;9.00;;;14.60;99.90;;;;;;6159643;23;20080;-76
2023/07/23 03:20:41;;;;;;;18.67;9.18;;;14.60;99.90;;;;;;6159510;23;20021;-75
2023/07/23 03:23:07;;;;;;;18.55;8.45;;;14.60;99.90;;;;;;6159766;23;20017;-75
2023/07/23 03:25:33;;;;;;;16.45;8.55;;;14.50;99.90;;;;;;6159633;23;20017;-77
2023/07/23 03:27:59;;;;;;;22.60;8.75;;;14.60;99.90;;;;;;6160017;23;20021;-76
2023/07/23 03:30:28;;;;;;;20.05;9.23;;;14.50;99.90;;;;;;6185999;23;20052;-74
2023/07/23 03:32:54;;;;;;;17.33;9.05;;;14.60;99.90;;;;;;6159567;23;20013;-75
2023/07/23 03:35:21;;;;;;;16.88;8.82;;;14.50;99.90;;;;;;6185805;23;20433;-75
2023/07/23 03:37:48;;;;;;;16.38;9.65;;;14.50;99.90;;;;;;6159361;23;20437;-77
2023/07/23 03:40:14;;;;;;;17.35;9.23;;;14.60;99.90;;;;;;6185841;23;20043;-76
2023/07/23 03:42:39;;;;;;;21.73;9.30;;;14.50;99.90;;;;;;6158562;23;20452;-75
2023/07/23 03:45:06;;;;;;;20.98;10.02;;;14.50;99.90;;;;;;6185831;23;20017;-76
2023/07/23 03:47:31;;;;;;;17.48;9.57;;;14.50;99.90;;;;;;6159278;23;20017;-76
2023/07/23 03:49:57;;;;;;;18.55;8.55;;;14.50;99.90;;;;;;6160631;23;20067;-76
2023/07/23 03:52:23;;;;;;;21.05;9.65;;;14.50;99.90;;;;;;6161838;23;20477;-75
2023/07/23 03:54:49;;;;;;;16.75;8.75;;;14.50;99.90;;;;;;6184601;23;20441;-74
2023/07/23 03:57:23;;;;;;;17.13;10.07;;;14.50;99.90;;;;;;6159905;23;20017;-75
2023/07/23 03:59:55;;;;;;;18.67;10.50;;;14.50;99.90;;;;;;6159702;23;20025;-77
2023/07/23 04:02:21;;;;;;;17.23;9.48;;;14.50;99.90;;;;;;6186127;23;20025;-77
2023/07/23 04:04:46;;;;;;;18.35;9.05;;;14.50;99.90;;;;;;6160046;23;20044;-75
2023/07/23 04:07:12;;;;;;;20.48;9.45;;;14.50;99.90;;;;;;6159746;23;20078;-75
2023/07/23 04:09:37;;;;;;;21.30;9.77;;;14.50;99.90;;;;;;6160476;23;20023;-75
2023/07/23 04:12:03;;;;;;;17.88;10.23;;;14.50;99.90;;;;;;6160905;23;20017;-76
2023/07/23 04:14:29;;;;;;;20.88;9.50;;;14.50;99.90;;;;;;6159955;23;20405;-76
2023/07/23 04:16:58;;;;;;;19.42;9.90;;;14.50;99.90;;;;;;6160670;23;20342;-76
2023/07/23 04:19:23;;;;;;;25.52;10.35;;;14.50;99.90;;;;;;6187493;23;20017;-77
2023/07/23 04:21:52;;;;;;;19.98;9.68;;;14.50;99.90;;;;;;6161155;23;20021;-77
2023/07/23 04:24:20;;;;;;;19.40;8.75;;;14.50;99.90;;;;;;6160937;23;20429;-77
2023/07/23 04:26:46;;;;;;;20.48;9.32;;;14.50;99.90;;;;;;6161038;23;20016;-77
2023/07/23 04:29:12;;;;;;;19.38;9.93;;;14.50;99.90;;;;;;6161191;23;20076;-77
2023/07/23 04:31:40;;;;;;;18.80;9.55;;;14.50;99.90;;;;;;6159296;23;20025;-77
2023/07/23 04:34:06;;;;;;;17.48;9.35;;;14.50;99.90;;;;;;6187079;23;20021;-76
2023/07/23 04:36:32;;;;;;;18.23;9.00;;;14.50;99.90;;;;;;6187133;23;20021;-76
2023/07/23 04:39:00;;;;;;;17.42;9.60;;;14.50;99.90;;;;;;6160864;23;20140;-78
2023/07/23 04:41:26;;;;;;;16.65;9.52;;;14.60;99.90;;;;;;6161001;23;20016;-76
2023/07/23 04:43:52;;;;;;;16.80;9.63;;;14.50;99.90;;;;;;6160979;23;20098;-76
2023/07/23 04:46:17;;;;;;;16.90;8.85;;;14.50;99.90;;;;;;6187567;23;20049;-78
2023/07/23 04:48:43;;;;;;;18.83;9.13;;;14.60;99.90;;;;;;6160735;23;20330;-77
2023/07/23 04:51:29;;;;;;;21.85;9.60;;;14.50;99.90;;;;;;6160897;23;20025;-76
2023/07/23 04:53:54;;;;;;;20.35;9.75;;;14.50;99.90;;;;;;6160284;23;20048;-77
2023/07/23 04:56:20;;;;;;;21.08;10.57;;;14.50;99.90;;;;;;6187413;23;20017;-76
2023/07/23 04:58:45;;;;;;;19.15;9.13;;;14.50;99.90;;;;;;6160796;23;20100;-76
2023/07/23 05:01:12;;;;;;;23.05;10.80;;;14.50;99.90;;;;;;6160309;23;20021;-76
2023/07/23 05:03:38;;;;;;;22.60;9.95;;;14.50;99.90;;;;;;6160847;23;20021;-76
2023/07/23 05:06:05;;;;;;;20.27;10.00;;;14.50;99.90;;;;;;6187418;23;20063;-76
2023/07/23 05:08:32;;;;;;;18.95;9.80;;;14.50;99.90;;;;;;6187178;23;20021;-75
2023/07/23 05:11:04;;;;;;;21.73;10.32;;;14.50;99.90;;;;;;6160844;23;20056;-76
2023/07/23 05:13:31;;;;;;;19.65;10.15;;;14.60;99.90;;;;;;6187319;23;20025;-76
2023/07/23 05:16:02;;;;;;;18.90;10.10;;;14.60;99.90;;;;;;6187438;23;20046;-76
2023/07/23 05:18:28;;;;;;;18.00;10.40;;;14.50;99.90;;;;;;6160651;23;20017;-76
2023/07/23 05:20:54;;;;;;;20.85;10.02;;;14.50;99.90;;;;;;6161027;23;20013;-76
2023/07/23 05:23:20;;;;;;;18.50;10.15;;;14.60;99.90;;;;;;6160735;23;20021;-76
2023/07/23 05:25:45;;;;;;;20.58;10.13;;;14.50;99.90;;;;;;6160564;23;20044;-77
2023/07/23 05:28:11;;;;;;;24.90;10.40;;;14.60;99.90;;;;;;6186897;23;20009;-77
2023/07/23 05:30:38;;;;;;;20.13;9.93;;;14.60;99.90;;;;;;6187257;23;20028;-76
2023/07/23 05:33:03;;;;;;;20.73;10.88;;;14.60;99.90;;;;;;6160459;23;20093;-76
2023/07/23 05:35:29;;;;;;;20.40;10.30;;;14.50;99.90;;;;;;6160443;23;20425;-77
2023/07/23 05:37:58;;;;;;;21.35;11.23;;;14.60;99.90;;;;;;6160685;23;20104;-76
2023/07/23 05:40:25;;;;;;;20.85;10.88;;;14.60;99.90;;;;;;6160398;23;20028;-76
2023/07/23 05:42:54;;;;;;;24.60;11.85;;;14.50;99.90;;;;;;6187035;23;20092;-76
2023/07/23 05:45:20;;;;;;;24.55;10.98;;;14.50;99.90;;;;;;6187003;23;20013;-76
2023/07/23 05:47:48;;;;;;;25.83;11.90;;;14.50;99.90;;;;;;6160341;23;20048;-76
2023/07/23 05:50:14;;;;;;;23.05;12.00;;;14.50;99.90;;;;;;6160415;23;20040;-77
2023/07/23 05:52:39;;;;;;;23.35;12.30;;;14.60;99.90;;;;;;6160293;23;20017;-76
2023/07/23 05:55:08;;;;;;;22.23;11.05;;;14.50;99.90;;;;;;6160215;23;20100;-76
2023/07/23 05:57:34;;;;;;;21.45;12.85;;;14.50;99.90;;;;;;6160305;23;20017;-78
2023/07/23 06:00:00;;;;;;;26.17;11.18;;;14.60;99.90;;;;;;6186788;23;20350;-75
2023/07/23 06:02:25;;;;;;;24.63;11.45;;;14.60;99.90;;;;;;6160628;23;20476;-77
2023/07/23 06:04:51;;;;;;;30.33;13.32;;;14.60;99.90;;;;;;6186538;23;20024;-76
2023/07/23 06:07:16;;;;;;;24.13;12.30;;;14.60;99.90;;;;;;6160160;23;20021;-77
2023/07/23 06:09:42;;;;;;;29.70;12.52;;;14.60;99.90;;;;;;6160555;23;20044;-76
2023/07/23 06:12:08;;;;;;;24.10;12.48;;;14.60;99.90;;;;;;6186727;23;20024;-76
2023/07/23 06:14:33;;;;;;;27.00;13.32;;;14.60;99.90;;;;;;6186746;23;20017;-75
2023/07/23 06:16:59;;;;;;;27.40;13.40;;;14.50;99.90;;;;;;6184784;23;20021;-77
2023/07/23 06:19:24;;;;;;;30.83;13.98;;;14.50;99.90;;;;;;6186461;23;20078;-75
2023/07/23 06:21:50;;;;;;;30.70;13.95;;;14.60;99.90;;;;;;6185202;23;20009;-75
2023/07/23 06:24:16;;;;;;;26.17;13.27;;;14.60;99.90;;;;;;6186316;23;20048;-76
2023/07/23 06:26:41;;;;;;;30.35;14.38;;;14.60;99.90;;;;;;6160091;23;20052;-77
2023/07/23 06:29:07;;;;;;;30.42;14.43;;;14.50;99.90;;;;;;6160091;23;20017;-75
2023/07/23 06:31:33;;;;;;;29.95;14.30;;;14.70;99.90;;;;;;6159934;23;20021;-75
2023/07/23 06:33:59;;;;;;;31.65;15.35;;;14.60;99.90;;;;;;6159849;23;20027;-74
2023/07/23 06:36:24;;;;;;;31.70;15.93;;;14.60;99.90;;;;;;6186108;23;20044;-75
2023/07/23 06:38:53;;;;;;;35.03;15.23;;;14.70;99.90;;;;;;6159735;23;20025;-75
2023/07/23 06:41:20;;;;;;;36.28;16.30;;;14.60;99.90;;;;;;6186504;23;20035;-75
2023/07/23 06:43:45;;;;;;;35.35;15.43;;;14.70;99.90;;;;;;6186534;23;20361;-75
2023/07/23 06:46:17;;;;;;;36.58;15.48;;;14.70;99.90;;;;;;6186443;23;20017;-75
2023/07/23 06:48:42;;;;;;;35.70;17.55;;;14.70;99.90;;;;;;6186366;23;20028;-79
2023/07/23 06:51:08;;;;;;;33.13;16.67;;;14.70;99.90;;;;;;6160055;23;20017;-77
2023/07/23 06:53:33;;;;;;;37.15;17.92;;;14.70;99.90;;;;;;6186109;23;20031;-75
2023/07/23 06:56:08;;;;;;;38.63;17.52;;;14.80;99.90;;;;;;6159847;23;20025;-76
2023/07/23 06:58:37;;;;;;;36.15;17.20;;;14.80;99.90;;;;;;6186447;23;20017;-75
2023/07/23 07:01:04;;;;;;;41.00;18.27;;;14.80;99.90;;;;;;6186392;23;20052;-76
2023/07/23 07:03:30;;;;;;;34.50;18.38;;;14.80;99.90;;;;;;6159640;23;20456;-74
2023/07/23 07:05:56;;;;;;;41.70;19.35;;;14.80;99.90;;;;;;6159780;23;20109;-75
2023/07/23 07:08:22;;;;;;;45.38;19.77;;;14.80;99.90;;;;;;6159668;23;20021;-76
2023/07/23 07:10:47;;;;;;;45.80;20.63;;;14.80;99.90;;;;;;6159778;23;20028;-80
2023/07/23 07:13:16;;;;;;;47.10;19.60;;;14.90;99.90;;;;;;6159584;23;20026;-79
2023/07/23 07:15:41;;;;;;;48.20;18.95;;;15.00;99.90;;;;;;6159561;23;20025;-76
2023/07/23 07:18:07;;;;;;;49.05;21.27;;;14.90;99.90;;;;;;6186292;23;20013;-75
2023/07/23 07:20:33;;;;;;;48.72;19.80;;;14.90;99.90;;;;;;6159594;23;20048;-76
2023/07/23 07:22:58;;;;;;;51.15;20.88;;;14.90;99.90;;;;;;6159649;23;20017;-76
2023/07/23 07:25:24;;;;;;;52.67;21.70;;;14.90;99.90;;;;;;6159429;23;20052;-76
2023/07/23 07:27:50;;;;;;;51.17;21.27;;;15.00;99.90;;;;;;6159471;23;20353;-79
2023/07/23 07:30:15;;;;;;;49.65;22.25;;;15.00;99.90;;;;;;6159647;23;20351;-77
2023/07/23 07:32:44;;;;;;;51.45;21.42;;;15.00;99.90;;;;;;6159595;23;20091;-76
2023/07/23 07:35:12;;;;;;;57.03;23.52;;;15.00;99.90;;;;;;6159427;23;20027;-75
2023/07/23 07:37:38;;;;;;;55.05;22.70;;;15.00;99.90;;;;;;6159476;23;20017;-74
2023/07/23 07:40:06;;;;;;;46.95;20.95;;;15.10;99.90;;;;;;6159574;23;20032;-75
2023/07/23 07:42:31;;;;;;;52.92;22.38;;;15.10;99.90;;;;;;6186026;23;20020;-75
2023/07/23 07:44:57;;;;;;;56.33;23.40;;;15.10;99.90;;;;;;6159601;23;20052;-75
2023/07/23 07:47:23;;;;;;;58.50;23.98;;;15.20;99.90;;;;;;6186146;23;20056;-75
2023/07/23 07:49:52;;;;;;;54.30;24.23;;;15.20;99.90;;;;;;6186176;23;20455;-75
2023/07/23 07:52:17;;;;;;;52.83;24.13;;;15.20;99.90;;;;;;6159548;23;20028;-75
2023/07/23 07:54:43;;;;;;;61.25;24.13;;;15.30;99.90;;;;;;6185718;23;20013;-76
2023/07/23 07:57:09;;;;;;;63.88;24.98;;;15.30;99.90;;;;;;6159462;23;20024;-76
2023/07/23 07:59:35;;;;;;;67.13;26.17;;;15.30;99.90;;;;;;6159262;23;20013;-75
2023/07/23 08:02:02;;;;;;;64.45;25.85;;;15.40;99.90;;;;;;6186022;23;20097;-74
2023/07/23 08:04:28;;;;;;;65.57;26.70;;;15.40;99.90;;;;;;6159238;23;20017;-75
2023/07/23 08:06:54;;;;;;;71.18;28.30;;;15.30;99.90;;;;;;6158415;23;20349;-74
2023/07/23 08:09:22;;;;;;;72.20;27.40;;;15.40;99.90;;;;;;6159340;23;20021;-75
2023/07/23 08:11:49;;;;;;;72.03;29.65;;;15.40;99.90;;;;;;6159210;23;20043;-76
2023/07/23 08:14:16;;;;;;;72.13;28.50;;;15.30;99.90;;;;;;6185534;23;20327;-75
2023/07/23 08:16:42;;;;;;;69.43;28.27;;;15.50;99.90;;;;;;6185630;23;20021;-75
2023/07/23 08:19:09;;;;;;;71.95;30.60;;;15.50;99.90;;;;;;6159307;23;20028;-74
2023/07/23 08:21:34;;;;;;;66.93;27.88;;;15.50;99.90;;;;;;6159314;23;20052;-74
2023/07/23 08:24:03;;;;;;;64.45;28.05;;;15.40;99.90;;;;;;6155593;23;20025;-75
2023/07/23 08:26:32;;;;;;;65.72;25.60;;;15.40;99.90;;;;;;6159302;23;20067;-74
2023/07/23 08:29:02;;;;;;;60.42;26.75;;;15.50;99.90;;;;;;6159266;23;20096;-80
2023/07/23 08:31:28;;;;;;;64.63;25.60;;;15.50;99.90;;;;;;6159280;23;20495;-77
2023/07/23 08:33:55;;;;;;;60.60;25.08;;;15.60;99.90;;;;;;6159152;23;20021;-75
2023/07/23 08:36:22;;;;;;;59.83;27.17;;;15.50;99.90;;;;;;6186943;23;20079;-78
2023/07/23 08:38:48;;;;;;;65.90;27.80;;;15.60;99.90;;;;;;6187456;23;20488;-75
2023/07/23 08:41:36;;;;;;;58.53;25.52;;;15.60;99.90;;;;;;6187729;23;20025;-75
2023/07/23 08:44:39;;;;;;;58.55;27.40;;;15.60;99.90;;;;;;6161028;23;20017;-75
2023/07/23 08:47:12;;;;;;;57.55;26.15;;;15.70;99.90;;;;;;6187858;23;20095;-75
2023/07/23 08:49:42;;;;;;;55.03;25.55;;;15.70;99.90;;;;;;6161128;23;20017;-75
2023/07/23 08:52:11;;;;;;;55.03;25.58;;;15.70;99.90;;;;;;6187607;23;20318;-75
2023/07/23 08:54:38;;;;;;;52.72;24.90;;;15.70;99.90;;;;;;6160958;23;20468;-74
2023/07/23 08:57:04;;;;;;;50.08;23.38;;;15.80;99.90;;;;;;6160895;23;20052;-75
2023/07/23 08:59:32;;;;;;;47.97;23.90;;;15.70;99.90;;;;;;6160896;23;20025;-74
2023/07/23 09:02:00;;;;;;;47.75;24.13;;;15.80;99.90;;;;;;6160757;23;20013;-75
2023/07/23 09:04:26;;;;;;;48.88;26.60;;;15.90;99.90;;;;;;6187097;23;20021;-75
2023/07/23 09:06:52;;;;;;;51.17;25.95;;;15.90;99.90;;;;;;6187087;23;20059;-75
2023/07/23 09:09:18;;;;;;;53.15;27.13;;;15.90;99.90;;;;;;6185484;23;20021;-74
2023/07/23 09:11:47;;;;;;;49.75;26.30;;;15.90;99.90;;;;;;6187422;23;20017;-74
2023/07/23 09:14:14;;;;;;;47.45;25.13;;;15.90;99.90;;;;;;6160604;23;20021;-74
2023/07/23 09:16:46;;;;;;;50.45;25.25;;;16.00;99.90;;;;;;6160578;23;20025;-75
2023/07/23 09:19:13;;;;;;;50.65;25.65;;;16.00;99.90;;;;;;6186925;23;20556;-74
2023/07/23 09:21:40;;;;;;;47.45;24.33;;;16.00;99.90;;;;;;6160604;23;20029;-76
2023/07/23 09:24:07;;;;;;;44.20;25.85;;;16.00;99.90;;;;;;6160475;23;20384;-74
2023/07/23 09:26:36;;;;;;;45.67;25.40;;;16.00;99.90;;;;;;6160606;23;20024;-75
2023/07/23 09:29:07;;;;;;;46.95;25.70;;;16.00;99.90;;;;;;6160528;23;20045;-75
2023/07/23 09:31:33;;;;;;;44.30;23.98;;;16.10;99.90;;;;;;6160570;23;20013;-76
2023/07/23 09:34:00;;;;;;;45.83;25.33;;;16.00;99.90;;;;;;6160378;23;20023;-78
2023/07/23 09:36:30;;;;;;;40.55;23.05;;;16.10;99.90;;;;;;6160357;23;20032;-77
2023/07/23 09:39:03;;;;;;;39.20;23.23;;;16.20;99.90;;;;;;6160471;23;20028;-76
2023/07/23 09:41:30;;;;;;;;;;;16.20;99.90;;;;;;6187469;23;20092;-75
2023/07/23 09:44:07;;;;;;;40.67;21.40;;;16.10;99.90;;;;;;6185358;23;19943;-75
2023/07/23 09:46:33;;;;;;;38.53;22.10;;;16.10;99.90;;;;;;6160345;23;20017;-76
2023/07/23 09:48:59;;;;;;;39.42;22.60;;;16.20;99.90;;;;;;6185782;23;20100;-78
2023/07/23 09:51:28;;;;;;;39.78;21.27;;;16.20;99.90;;;;;;6160229;23;20045;-74
2023/07/23 09:53:54;;;;;;;38.50;22.08;;;16.20;99.90;;;;;;6160171;23;20021;-76
2023/07/23 09:56:22;;;;;;;38.03;22.15;;;16.20;99.90;;;;;;6160425;23;20025;-74
2023/07/23 09:58:50;;;;;;;36.28;20.80;;;16.20;99.90;;;;;;6160226;23;20017;-75
2023/07/23 10:01:17;;;;;;;36.78;22.05;;;16.20;99.90;;;;;;6160236;23;20028;-74
2023/07/23 10:03:47;;;;;;;38.55;22.42;;;16.20;99.90;;;;;;6186615;23;20017;-78
2023/07/23 10:06:20;;;;;;;35.65;20.23;;;16.20;99.90;;;;;;6160143;23;20017;-73
2023/07/23 10:08:48;;;;;;;35.30;20.30;;;16.20;99.90;;;;;;6186751;23;20013;-78
2023/07/23 10:11:20;;;;;;;38.05;20.33;;;16.20;99.90;;;;;;6160068;23;20017;-74
2023/07/23 10:13:48;;;;;;;33.10;19.70;;;16.20;99.90;;;;;;6160168;23;20063;-75
2023/07/23 10:16:22;;;;;;;30.60;18.45;;;16.20;99.90;;;;;;6186685;23;20013;-75
2023/07/23 10:18:49;;;;;;;34.50;20.63;;;16.30;99.90;;;;;;6160046;23;20049;-75
2023/07/23 10:21:16;;;;;;;31.63;19.77;;;16.20;99.90;;;;;;6159937;23;20053;-74
2023/07/23 10:23:42;;;;;;;36.63;21.38;;;16.30;99.90;;;;;;6159883;23;20048;-75
2023/07/23 10:26:22;;;;;;;35.85;20.13;;;16.30;99.90;;;;;;6186261;23;20017;-83
2023/07/23 10:29:07;;;;;;;37.95;20.98;;;16.30;99.90;;;;;;6159982;23;20021;-79
2023/07/23 10:31:33;;;;;;;38.33;21.23;;;16.40;99.90;;;;;;6159912;23;20021;-79
2023/07/23 10:34:00;;;;;;;36.28;20.30;;;16.50;99.90;;;;;;6159838;23;20020;-79
2023/07/23 10:36:26;;;;;;;32.72;21.05;;;16.50;99.90;;;;;;6186058;23;20021;-79
2023/07/23 10:39:18;;;;;;;35.30;20.23;;;16.50;99.90;;;;;;6178419;23;20413;-79
2023/07/23 10:41:55;;;;;;;35.60;21.02;;;16.40;99.90;;;;;;6159790;23;20334;-78
2023/07/23 10:44:27;;;;;;;37.63;20.77;;;16.50;99.90;;;;;;6186472;23;20028;-78
2023/07/23 10:46:55;;;;;;;33.97;21.30;;;16.60;99.90;;;;;;6186135;23;20025;-79
2023/07/23 10:49:23;;;;;;;32.67;18.88;;;16.60;99.90;;;;;;6186199;23;20448;-78
2023/07/23 10:51:52;;;;;;;35.53;19.77;;;16.60;99.90;;;;;;6186515;23;20017;-79
2023/07/23 10:54:21;;;;;;;30.80;18.88;;;16.60;99.90;;;;;;6186024;23;20523;-79
2023/07/23 10:56:50;;;;;;;33.33;19.63;;;16.60;99.90;;;;;;6186132;23;20025;-77
2023/07/23 10:59:21;;;;;;;32.33;18.15;;;16.60;99.90;;;;;;6185894;23;20009;-77
2023/07/23 11:01:53;;;;;;;28.90;17.02;;;16.70;99.90;;;;;;6186415;23;20017;-77
2023/07/23 11:04:25;;;;;;;29.85;18.20;;;16.70;99.90;;;;;;6159739;23;20049;-80
2023/07/23 11:07:04;;;;;;;29.17;18.35;;;16.70;99.90;;;;;;6186403;23;20017;-78
2023/07/23 11:09:33;;;;;;;30.65;18.40;;;16.70;99.90;;;;;;6184680;23;20310;-77
2023/07/23 11:12:01;;;;;;;26.90;16.95;;;16.70;99.90;;;;;;6159595;23;20021;-78
2023/07/23 11:14:28;;;;;;;31.33;16.67;;;16.80;99.90;;;;;;6159471;23;20067;-77
2023/07/23 11:16:59;;;;;;;28.02;16.85;;;16.70;99.90;;;;;;6186252;23;20013;-78
2023/07/23 11:19:27;;;;;;;26.40;16.27;;;16.80;99.90;;;;;;6160228;23;20013;-78
2023/07/23 11:21:56;;;;;;;26.65;16.25;;;16.90;99.90;;;;;;6186170;23;20088;-77
2023/07/23 11:24:23;;;;;;;24.48;15.32;;;16.90;99.90;;;;;;6186215;23;20013;-78
2023/07/23 11:26:50;;;;;;;27.52;16.98;;;16.90;99.90;;;;;;6185676;23;20083;-77
2023/07/23 11:29:17;;;;;;;26.73;16.27;;;16.90;99.90;;;;;;6186289;23;20016;-77
2023/07/23 11:31:44;;;;;;;27.98;16.60;;;16.90;99.90;;;;;;6159547;23;20025;-76
2023/07/23 11:34:12;;;;;;;24.35;15.40;;;16.90;99.90;;;;;;6186040;23;20013;-75
2023/07/23 11:36:38;;;;;;;25.15;16.13;;;16.90;99.90;;;;;;6159308;23;20043;-76
2023/07/23 11:39:06;;;;;;;26.08;15.27;;;16.90;99.90;;;;;;6159544;23;20021;-74
2023/07/23 11:41:37;;;;;;;24.88;15.32;;;16.90;99.90;;;;;;6159291;23;20028;-74
2023/07/23 11:44:07;;;;;;;25.17;15.23;;;16.90;99.90;;;;;;6159253;23;20096;-74
2023/07/23 11:46:37;;;;;;;26.63;15.45;;;16.90;99.90;;;;;;6159445;23;20508;-74
2023/07/23 11:49:06;;;;;;;24.02;14.82;;;16.90;99.90;;;;;;6159463;23;20013;-75
2023/07/23 11:51:32;;;;;;;24.83;13.95;;;16.80;99.90;;;;;;6159257;23;20024;-74
2023/07/23 11:54:07;;;;;;;23.17;14.95;;;16.90;99.90;;;;;;6159247;23;20404;-75
2023/07/23 11:56:40;;;;;;;22.77;14.50;;;16.80;99.90;;;;;;6159486;23;20025;-75
2023/07/23 11:59:07;;;;;;;;;;;16.80;99.90;;;;;;6160373;23;20468;-76
2023/07/23 12:01:35;;;;;;;19.90;13.40;;;16.70;99.90;;;;;;6184243;23;20039;-79
2023/07/23 12:04:03;;;;;;;20.92;13.60;;;16.70;99.90;;;;;;6159158;23;20028;-75
2023/07/23 12:06:31;;;;;;;21.55;14.30;;;16.70;99.90;;;;;;6159292;23;20021;-76
2023/07/23 12:08:57;;;;;;;21.60;13.98;;;16.70;99.90;;;;;;6159328;23;20052;-75
2023/07/23 12:11:25;;;;;;;20.90;14.27;;;16.70;99.90;;;;;;6160690;23;20021;-77
2023/07/23 12:13:53;;;;;;;22.33;14.10;;;16.70;99.90;;;;;;6161183;23;20051;-77
2023/07/23 12:16:37;;;;;;;24.13;14.80;;;16.70;99.90;;;;;;6161008;23;20449;-75
2023/07/23 12:19:08;;;;;;;23.15;14.55;;;16.80;99.90;;;;;;6161742;23;20017;-75
2023/07/23 12:21:36;;;;;;;21.77;15.45;;;16.80;99.90;;;;;;6161272;23;20021;-75
2023/07/23 12:24:28;;;;;;;22.88;14.43;;;16.80;99.90;;;;;;6187380;23;20136;-75
2023/07/23 12:26:58;;;;;;;21.58;13.93;;;16.90;99.90;;;;;;6160755;23;20290;-75
2023/07/23 12:29:28;;;;;;;24.63;15.55;;;16.90;99.90;;;;;;6161146;23;20449;-75
2023/07/23 12:32:13;;;;;;;25.52;15.30;;;17.00;99.90;;;;;;6160932;23;20017;-76